DLH66M LOWS-EDDF
Flight info
| Callsign | DLH66M |
|---|---|
| Flight time | 0h 44m |
| Altitude | 30000 |
| Route | INROM DCT SIMBA Y700 NENUM T161 DEBHI DEBHI1B |
| Aircraft | A320/M-SDE2E3FGIJ1LORWXYZ/HB1 |
Departure
| Time | 2026-05-07 10:54 |
|---|---|
| Airport | Salzburg Airport (LOWS) |
Arrival
| Time | 2026-05-07 11:38 |
|---|---|
| Airport | Frankfurt Main Airport (EDDF) |
| Time | Latitude | Longitude | Altitude | Speed | Heading |
|---|---|---|---|---|---|
| 2026-05-07 10:35 | 47.79167 | 12.99898 | 1422 ft | 0 kts | 282° |
| 2026-05-07 10:47 | 47.79165 | 12.99911 | 1422 ft | 4 kts | 281° |
| 2026-05-07 10:47 | 47.79161 | 12.99948 | 1422 ft | 4 kts | 275° |
| 2026-05-07 10:47 | 47.79161 | 12.99986 | 1422 ft | 4 kts | 258° |
| 2026-05-07 10:48 | 47.79169 | 13.00013 | 1422 ft | 4 kts | 195° |
| 2026-05-07 10:48 | 47.79177 | 13.00013 | 1422 ft | 1 kts | 157° |
| 2026-05-07 10:48 | 47.79178 | 13.00012 | 1422 ft | 0 kts | 157° |
| 2026-05-07 10:50 | 47.79178 | 13.00013 | 1422 ft | 1 kts | 157° |
| 2026-05-07 10:50 | 47.79140 | 13.00037 | 1422 ft | 7 kts | 157° |
| 2026-05-07 10:50 | 47.79087 | 13.00070 | 1422 ft | 12 kts | 156° |
| 2026-05-07 10:51 | 47.78984 | 13.00142 | 1422 ft | 21 kts | 150° |
| 2026-05-07 10:51 | 47.78953 | 13.00326 | 1422 ft | 20 kts | 97° |
| 2026-05-07 10:51 | 47.78874 | 13.00430 | 1419 ft | 10 kts | 168° |
| 2026-05-07 10:51 | 47.78787 | 13.00471 | 1420 ft | 17 kts | 156° |
| 2026-05-07 10:52 | 47.78656 | 13.00554 | 1421 ft | 24 kts | 156° |
| 2026-05-07 10:52 | 47.78474 | 13.00669 | 1421 ft | 32 kts | 157° |
| 2026-05-07 10:52 | 47.78290 | 13.00782 | 1421 ft | 23 kts | 157° |
| 2026-05-07 10:52 | 47.78184 | 13.00942 | 1419 ft | 19 kts | 97° |
| 2026-05-07 10:53 | 47.78235 | 13.01075 | 1419 ft | 14 kts | 18° |
| 2026-05-07 10:53 | 47.78289 | 13.01056 | 1417 ft | 0 kts | 336° |
| 2026-05-07 10:53 | 47.78349 | 13.01017 | 1419 ft | 27 kts | 337° |
| 2026-05-07 10:54 | 47.78760 | 13.00756 | 1421 ft | 99 kts | 337° |
| 2026-05-07 10:54 | 47.79569 | 13.00240 | 1441 ft | 151 kts | 336° |
| 2026-05-07 10:54 | 47.80563 | 12.99620 | 2082 ft | 154 kts | 334° |
| 2026-05-07 10:54 | 47.81550 | 12.98982 | 2843 ft | 155 kts | 330° |
| 2026-05-07 10:55 | 47.82590 | 12.98473 | 3405 ft | 168 kts | 351° |
| 2026-05-07 10:55 | 47.83851 | 12.98468 | 3753 ft | 193 kts | 359° |
| 2026-05-07 10:55 | 47.85274 | 12.98623 | 4105 ft | 216 kts | 1° |
| 2026-05-07 10:55 | 47.86845 | 12.98813 | 4486 ft | 237 kts | 0° |
| 2026-05-07 10:56 | 47.88551 | 12.99004 | 5072 ft | 255 kts | 0° |
| 2026-05-07 10:56 | 47.90363 | 12.99185 | 5759 ft | 270 kts | 360° |
| 2026-05-07 10:56 | 47.92259 | 12.99358 | 6725 ft | 276 kts | 359° |
| 2026-05-07 10:56 | 47.94198 | 12.99521 | 7628 ft | 282 kts | 359° |
| 2026-05-07 10:57 | 47.96176 | 12.99674 | 8548 ft | 287 kts | 359° |
| 2026-05-07 10:57 | 47.98189 | 12.99820 | 9461 ft | 292 kts | 359° |
| 2026-05-07 10:57 | 48.00243 | 12.99964 | 10246 ft | 302 kts | 359° |
| 2026-05-07 10:57 | 48.02427 | 13.00112 | 10570 ft | 326 kts | 359° |
| 2026-05-07 10:58 | 48.04775 | 13.00270 | 10924 ft | 348 kts | 0° |
| 2026-05-07 10:58 | 48.07232 | 13.00439 | 11634 ft | 355 kts | 0° |
| 2026-05-07 10:58 | 48.09694 | 13.00616 | 12374 ft | 361 kts | 360° |
| 2026-05-07 10:58 | 48.12224 | 13.00799 | 13138 ft | 366 kts | 360° |
| 2026-05-07 10:59 | 48.14792 | 13.00984 | 13917 ft | 370 kts | 0° |
| 2026-05-07 10:59 | 48.17386 | 13.01174 | 14610 ft | 375 kts | 0° |
| 2026-05-07 10:59 | 48.20008 | 13.01365 | 15306 ft | 379 kts | 0° |
| 2026-05-07 10:59 | 48.22656 | 13.01475 | 16008 ft | 380 kts | 354° |
| 2026-05-07 11:00 | 48.25204 | 13.00692 | 16675 ft | 378 kts | 336° |
| 2026-05-07 11:00 | 48.27486 | 12.98772 | 17345 ft | 375 kts | 317° |
| 2026-05-07 11:00 | 48.29235 | 12.95905 | 17997 ft | 372 kts | 299° |
| 2026-05-07 11:00 | 48.30436 | 12.92463 | 18590 ft | 373 kts | 292° |
| 2026-05-07 11:01 | 48.31577 | 12.88938 | 19172 ft | 377 kts | 292° |
| 2026-05-07 11:01 | 48.32729 | 12.85388 | 19746 ft | 380 kts | 292° |
| 2026-05-07 11:01 | 48.33895 | 12.81798 | 20329 ft | 383 kts | 292° |
| 2026-05-07 11:01 | 48.35073 | 12.78181 | 20924 ft | 386 kts | 292° |
| 2026-05-07 11:02 | 48.36259 | 12.74547 | 21480 ft | 389 kts | 292° |
| 2026-05-07 11:02 | 48.37442 | 12.70922 | 22038 ft | 392 kts | 292° |
| 2026-05-07 11:02 | 48.38645 | 12.67225 | 22545 ft | 395 kts | 292° |
| 2026-05-07 11:02 | 48.39863 | 12.63475 | 23058 ft | 399 kts | 291° |
| 2026-05-07 11:03 | 48.40686 | 12.60937 | 23415 ft | 401 kts | 291° |
| 2026-05-07 11:03 | 48.41911 | 12.57143 | 23871 ft | 404 kts | 291° |
| 2026-05-07 11:03 | 48.43128 | 12.53372 | 24284 ft | 407 kts | 291° |
| 2026-05-07 11:03 | 48.44367 | 12.49529 | 24705 ft | 410 kts | 291° |
| 2026-05-07 11:04 | 48.45621 | 12.45640 | 25117 ft | 413 kts | 291° |
| 2026-05-07 11:04 | 48.46880 | 12.41728 | 25531 ft | 415 kts | 291° |
| 2026-05-07 11:04 | 48.48147 | 12.37783 | 25938 ft | 418 kts | 291° |
| 2026-05-07 11:04 | 48.49420 | 12.33811 | 26338 ft | 421 kts | 291° |
| 2026-05-07 11:05 | 48.50696 | 12.29823 | 26733 ft | 424 kts | 290° |
| 2026-05-07 11:05 | 48.51968 | 12.25839 | 27135 ft | 427 kts | 290° |
| 2026-05-07 11:05 | 48.53256 | 12.21794 | 27519 ft | 429 kts | 290° |
| 2026-05-07 11:05 | 48.54556 | 12.17710 | 27935 ft | 432 kts | 291° |
| 2026-05-07 11:06 | 48.55865 | 12.13608 | 28347 ft | 433 kts | 292° |
| 2026-05-07 11:06 | 48.57178 | 12.09488 | 28726 ft | 436 kts | 291° |
| 2026-05-07 11:06 | 48.58496 | 12.05341 | 29081 ft | 438 kts | 291° |
| 2026-05-07 11:06 | 48.59803 | 12.01216 | 29426 ft | 441 kts | 291° |
| 2026-05-07 11:07 | 48.61124 | 11.97020 | 29764 ft | 443 kts | 291° |
| 2026-05-07 11:07 | 48.62449 | 11.92800 | 29988 ft | 445 kts | 291° |
| 2026-05-07 11:07 | 48.65071 | 11.84466 | 30020 ft | 434 kts | 291° |
| 2026-05-07 11:08 | 48.67659 | 11.76243 | 30022 ft | 431 kts | 292° |
| 2026-05-07 11:08 | 48.70197 | 11.68108 | 30029 ft | 430 kts | 292° |
| 2026-05-07 11:09 | 48.72737 | 11.59926 | 30029 ft | 430 kts | 292° |
| 2026-05-07 11:09 | 48.75293 | 11.51705 | 30025 ft | 430 kts | 292° |
| 2026-05-07 11:10 | 48.78433 | 11.43979 | 30020 ft | 436 kts | 313° |
| 2026-05-07 11:10 | 48.82879 | 11.37776 | 30038 ft | 436 kts | 316° |
| 2026-05-07 11:11 | 48.87358 | 11.31578 | 30040 ft | 434 kts | 316° |
| 2026-05-07 11:11 | 48.91805 | 11.25387 | 30037 ft | 432 kts | 315° |
| 2026-05-07 11:12 | 48.96229 | 11.19178 | 30033 ft | 431 kts | 315° |
| 2026-05-07 11:12 | 49.00623 | 11.13013 | 30038 ft | 431 kts | 315° |
| 2026-05-07 11:13 | 49.05036 | 11.06820 | 30023 ft | 430 kts | 316° |
| 2026-05-07 11:13 | 49.09429 | 11.00634 | 30040 ft | 428 kts | 316° |
| 2026-05-07 11:14 | 49.13766 | 10.94516 | 30056 ft | 426 kts | 316° |
| 2026-05-07 11:14 | 49.18108 | 10.88365 | 30051 ft | 425 kts | 316° |
| 2026-05-07 11:15 | 49.22439 | 10.82221 | 30044 ft | 424 kts | 316° |
| 2026-05-07 11:15 | 49.26770 | 10.76074 | 30042 ft | 424 kts | 316° |
| 2026-05-07 11:16 | 49.31083 | 10.69914 | 30026 ft | 423 kts | 317° |
| 2026-05-07 11:16 | 49.35356 | 10.63791 | 30052 ft | 421 kts | 317° |
| 2026-05-07 11:17 | 49.39635 | 10.57655 | 30054 ft | 420 kts | 317° |
| 2026-05-07 11:17 | 49.43907 | 10.51520 | 30040 ft | 419 kts | 317° |
| 2026-05-07 11:18 | 49.48133 | 10.45436 | 30033 ft | 418 kts | 317° |
| 2026-05-07 11:18 | 49.52386 | 10.39301 | 29872 ft | 421 kts | 317° |
| 2026-05-07 11:19 | 49.54524 | 10.36212 | 29577 ft | 422 kts | 317° |
| 2026-05-07 11:19 | 49.56671 | 10.33099 | 29271 ft | 421 kts | 317° |
| 2026-05-07 11:19 | 49.58797 | 10.30012 | 28984 ft | 421 kts | 317° |
| 2026-05-07 11:19 | 49.60932 | 10.26911 | 28686 ft | 421 kts | 317° |
| 2026-05-07 11:20 | 49.63049 | 10.23832 | 28032 ft | 416 kts | 317° |
| 2026-05-07 11:20 | 49.65142 | 10.20782 | 27388 ft | 411 kts | 317° |
| 2026-05-07 11:20 | 49.67209 | 10.17766 | 26758 ft | 407 kts | 317° |
| 2026-05-07 11:20 | 49.69257 | 10.14776 | 26133 ft | 403 kts | 316° |
| 2026-05-07 11:21 | 49.71256 | 10.11851 | 25518 ft | 399 kts | 316° |
| 2026-05-07 11:21 | 49.73264 | 10.08907 | 24908 ft | 396 kts | 316° |
| 2026-05-07 11:21 | 49.75252 | 10.05994 | 24307 ft | 392 kts | 316° |
| 2026-05-07 11:21 | 49.77231 | 10.03095 | 23712 ft | 390 kts | 316° |
| 2026-05-07 11:22 | 49.79198 | 10.00211 | 23075 ft | 387 kts | 316° |
| 2026-05-07 11:22 | 49.81145 | 9.97347 | 22508 ft | 383 kts | 316° |
| 2026-05-07 11:22 | 49.83067 | 9.94520 | 21998 ft | 378 kts | 316° |
| 2026-05-07 11:22 | 49.84968 | 9.91725 | 21483 ft | 374 kts | 316° |
| 2026-05-07 11:23 | 49.86817 | 9.88999 | 21017 ft | 369 kts | 316° |
| 2026-05-07 11:23 | 49.88667 | 9.86269 | 20541 ft | 365 kts | 316° |
| 2026-05-07 11:23 | 49.90499 | 9.83565 | 20083 ft | 361 kts | 316° |
| 2026-05-07 11:23 | 49.92308 | 9.80891 | 19620 ft | 357 kts | 316° |
| 2026-05-07 11:24 | 49.94102 | 9.78229 | 19170 ft | 354 kts | 316° |
| 2026-05-07 11:24 | 49.95883 | 9.75581 | 18712 ft | 352 kts | 316° |
| 2026-05-07 11:24 | 49.97623 | 9.72992 | 18244 ft | 350 kts | 316° |
| 2026-05-07 11:24 | 49.99381 | 9.70375 | 17744 ft | 348 kts | 316° |
| 2026-05-07 11:25 | 50.01112 | 9.67798 | 17464 ft | 339 kts | 316° |
| 2026-05-07 11:25 | 50.02790 | 9.65304 | 17325 ft | 327 kts | 316° |
| 2026-05-07 11:25 | 50.04412 | 9.62890 | 17195 ft | 316 kts | 316° |
| 2026-05-07 11:25 | 50.05967 | 9.60568 | 17050 ft | 300 kts | 316° |
| 2026-05-07 11:26 | 50.07427 | 9.58382 | 16897 ft | 282 kts | 316° |
| 2026-05-07 11:26 | 50.08802 | 9.56320 | 16529 ft | 274 kts | 316° |
| 2026-05-07 11:26 | 50.10160 | 9.54278 | 16082 ft | 270 kts | 316° |
| 2026-05-07 11:26 | 50.11505 | 9.52259 | 15590 ft | 267 kts | 316° |
| 2026-05-07 11:27 | 50.12839 | 9.50258 | 15119 ft | 265 kts | 316° |
| 2026-05-07 11:27 | 50.14171 | 9.48285 | 14645 ft | 263 kts | 319° |
| 2026-05-07 11:27 | 50.15628 | 9.46581 | 14184 ft | 261 kts | 328° |
| 2026-05-07 11:27 | 50.17236 | 9.45255 | 13811 ft | 261 kts | 336° |
| 2026-05-07 11:28 | 50.18911 | 9.44286 | 13565 ft | 259 kts | 340° |
| 2026-05-07 11:28 | 50.20583 | 9.43200 | 13293 ft | 257 kts | 328° |
| 2026-05-07 11:28 | 50.21953 | 9.41471 | 12968 ft | 258 kts | 311° |
| 2026-05-07 11:28 | 50.22943 | 9.39115 | 12568 ft | 261 kts | 294° |
| 2026-05-07 11:29 | 50.23429 | 9.36361 | 12180 ft | 265 kts | 277° |
| 2026-05-07 11:29 | 50.23347 | 9.33503 | 11798 ft | 270 kts | 259° |
| 2026-05-07 11:29 | 50.22758 | 9.30689 | 11414 ft | 273 kts | 252° |
| 2026-05-07 11:29 | 50.22106 | 9.27895 | 11042 ft | 274 kts | 252° |
| 2026-05-07 11:30 | 50.21451 | 9.25080 | 10591 ft | 278 kts | 252° |
| 2026-05-07 11:30 | 50.20788 | 9.22223 | 10122 ft | 282 kts | 252° |
| 2026-05-07 11:30 | 50.20118 | 9.19328 | 9559 ft | 287 kts | 252° |
| 2026-05-07 11:30 | 50.19433 | 9.16364 | 8966 ft | 292 kts | 252° |
| 2026-05-07 11:31 | 50.18740 | 9.13369 | 8406 ft | 295 kts | 252° |
| 2026-05-07 11:31 | 50.18039 | 9.10351 | 7842 ft | 297 kts | 252° |
| 2026-05-07 11:31 | 50.17328 | 9.07295 | 7270 ft | 300 kts | 252° |
| 2026-05-07 11:31 | 50.16606 | 9.04217 | 6698 ft | 303 kts | 252° |
| 2026-05-07 11:32 | 50.15210 | 8.98329 | 6445 ft | 275 kts | 251° |
| 2026-05-07 11:32 | 50.14572 | 8.95635 | 6358 ft | 253 kts | 252° |
| 2026-05-07 11:32 | 50.13977 | 8.93093 | 6088 ft | 247 kts | 252° |
| 2026-05-07 11:33 | 50.13387 | 8.90570 | 5750 ft | 246 kts | 252° |
| 2026-05-07 11:33 | 50.12807 | 8.88099 | 5395 ft | 246 kts | 252° |
| 2026-05-07 11:33 | 50.12219 | 8.85597 | 5041 ft | 245 kts | 252° |
| 2026-05-07 11:33 | 50.11635 | 8.83119 | 4687 ft | 240 kts | 252° |
| 2026-05-07 11:34 | 50.11067 | 8.80710 | 4337 ft | 234 kts | 252° |
| 2026-05-07 11:34 | 50.10507 | 8.78336 | 3987 ft | 231 kts | 252° |
| 2026-05-07 11:34 | 50.09965 | 8.76042 | 3658 ft | 222 kts | 252° |
| 2026-05-07 11:34 | 50.09437 | 8.73807 | 3350 ft | 219 kts | 253° |
| 2026-05-07 11:35 | 50.08913 | 8.71589 | 3016 ft | 214 kts | 251° |
| 2026-05-07 11:35 | 50.08410 | 8.69471 | 2727 ft | 204 kts | 252° |
| 2026-05-07 11:35 | 50.07935 | 8.67470 | 2453 ft | 190 kts | 252° |
| 2026-05-07 11:35 | 50.07498 | 8.65630 | 2187 ft | 171 kts | 252° |
| 2026-05-07 11:36 | 50.07109 | 8.63996 | 1930 ft | 153 kts | 252° |
| 2026-05-07 11:36 | 50.06757 | 8.62516 | 1719 ft | 140 kts | 253° |
| 2026-05-07 11:36 | 50.06426 | 8.61120 | 1516 ft | 135 kts | 253° |
| 2026-05-07 11:36 | 50.06103 | 8.59754 | 1312 ft | 134 kts | 254° |
| 2026-05-07 11:37 | 50.05781 | 8.58399 | 1098 ft | 134 kts | 252° |
| 2026-05-07 11:37 | 50.05457 | 8.57051 | 894 ft | 134 kts | 251° |
| 2026-05-07 11:37 | 50.05141 | 8.55721 | 740 ft | 132 kts | 251° |
| 2026-05-07 11:37 | 50.04824 | 8.54387 | 571 ft | 131 kts | 251° |
| 2026-05-07 11:38 | 50.04509 | 8.53070 | 375 ft | 128 kts | 251° |
| 2026-05-07 11:38 | 50.04237 | 8.51927 | 335 ft | 80 kts | 249° |
| 2026-05-07 11:38 | 50.04099 | 8.51350 | 331 ft | 50 kts | 250° |
| 2026-05-07 11:38 | 50.03993 | 8.51042 | 327 ft | 23 kts | 228° |
| 2026-05-07 11:39 | 50.03867 | 8.50868 | 326 ft | 25 kts | 218° |
| 2026-05-07 11:39 | 50.03807 | 8.50850 | 332 ft | 6 kts | 157° |
| 2026-05-07 11:39 | 50.03790 | 8.50936 | 334 ft | 10 kts | 79° |
| 2026-05-07 11:39 | 50.03814 | 8.51060 | 331 ft | 18 kts | 69° |
| 2026-05-07 11:40 | 50.03858 | 8.51245 | 334 ft | 18 kts | 70° |
| 2026-05-07 11:40 | 50.03901 | 8.51425 | 334 ft | 17 kts | 70° |
| 2026-05-07 11:40 | 50.03940 | 8.51589 | 333 ft | 15 kts | 70° |
| 2026-05-07 11:40 | 50.03978 | 8.51745 | 336 ft | 18 kts | 69° |
| 2026-05-07 11:41 | 50.04028 | 8.51954 | 335 ft | 22 kts | 69° |
| 2026-05-07 11:41 | 50.04082 | 8.52177 | 351 ft | 22 kts | 70° |
| 2026-05-07 11:41 | 50.04133 | 8.52392 | 350 ft | 21 kts | 70° |
| 2026-05-07 11:41 | 50.04182 | 8.52598 | 355 ft | 20 kts | 70° |
| 2026-05-07 11:42 | 50.04231 | 8.52802 | 354 ft | 19 kts | 69° |
| 2026-05-07 11:42 | 50.04280 | 8.53007 | 356 ft | 26 kts | 70° |
| 2026-05-07 11:42 | 50.04343 | 8.53271 | 366 ft | 20 kts | 69° |
| 2026-05-07 11:42 | 50.04385 | 8.53445 | 373 ft | 14 kts | 72° |
| 2026-05-07 11:43 | 50.04403 | 8.53631 | 375 ft | 22 kts | 84° |
| 2026-05-07 11:43 | 50.04419 | 8.53872 | 375 ft | 23 kts | 84° |
| 2026-05-07 11:43 | 50.04436 | 8.54127 | 375 ft | 25 kts | 84° |
| 2026-05-07 11:43 | 50.04452 | 8.54379 | 373 ft | 21 kts | 84° |
| 2026-05-07 11:44 | 50.04418 | 8.54622 | 367 ft | 26 kts | 119° |
| 2026-05-07 11:44 | 50.04290 | 8.54788 | 357 ft | 24 kts | 155° |
| 2026-05-07 11:44 | 50.04138 | 8.54870 | 353 ft | 8 kts | 159° |
| 2026-05-07 11:44 | 50.04103 | 8.54891 | 350 ft | 8 kts | 159° |
| 2026-05-07 11:45 | 50.04056 | 8.54918 | 355 ft | 6 kts | 159° |
| 2026-05-07 11:45 | 50.04002 | 8.54950 | 357 ft | 9 kts | 159° |
| 2026-05-07 11:45 | 50.03939 | 8.54987 | 354 ft | 10 kts | 159° |
| 2026-05-07 11:45 | 50.03892 | 8.55015 | 357 ft | 11 kts | 159° |
| 2026-05-07 11:46 | 50.03847 | 8.55102 | 352 ft | 11 kts | 88° |
| 2026-05-07 11:46 | 50.03870 | 8.55205 | 355 ft | 10 kts | 68° |
| 2026-05-07 11:46 | 50.03912 | 8.55377 | 358 ft | 21 kts | 70° |
| 2026-05-07 11:46 | 50.03961 | 8.55587 | 354 ft | 21 kts | 70° |
| 2026-05-07 11:47 | 50.04013 | 8.55802 | 358 ft | 22 kts | 70° |
| 2026-05-07 11:47 | 50.04066 | 8.56029 | 351 ft | 23 kts | 69° |
| 2026-05-07 11:47 | 50.04124 | 8.56267 | 355 ft | 24 kts | 70° |
| 2026-05-07 11:47 | 50.04185 | 8.56523 | 360 ft | 26 kts | 69° |
| 2026-05-07 11:48 | 50.04248 | 8.56782 | 361 ft | 26 kts | 70° |
| 2026-05-07 11:48 | 50.04313 | 8.57058 | 364 ft | 28 kts | 70° |
| 2026-05-07 11:48 | 50.04383 | 8.57349 | 361 ft | 30 kts | 69° |
| 2026-05-07 11:48 | 50.04453 | 8.57645 | 366 ft | 27 kts | 70° |
| 2026-05-07 11:49 | 50.04521 | 8.57928 | 366 ft | 25 kts | 70° |
| 2026-05-07 11:49 | 50.04585 | 8.58194 | 369 ft | 27 kts | 69° |
| 2026-05-07 11:49 | 50.04649 | 8.58463 | 371 ft | 28 kts | 71° |
| 2026-05-07 11:49 | 50.04719 | 8.58745 | 371 ft | 26 kts | 66° |
| 2026-05-07 11:50 | 50.04786 | 8.59015 | 368 ft | 28 kts | 69° |
| 2026-05-07 11:50 | 50.04829 | 8.59193 | 372 ft | 13 kts | 69° |
| 2026-05-07 11:50 | 50.04853 | 8.59286 | 370 ft | 7 kts | 50° |
| 2026-05-07 11:50 | 50.04904 | 8.59271 | 369 ft | 9 kts | 338° |
| 2026-05-07 11:51 | 50.04929 | 8.59256 | 366 ft | 0 kts | 339° |